createdAt,value
2019-04-25T00:00:36.639Z,12.99
2019-04-25T00:01:37.025Z,13.02
2019-04-25T00:02:36.772Z,13.09
2019-04-25T00:03:36.709Z,13.09
2019-04-25T00:04:36.939Z,13.05
2019-04-25T00:05:36.294Z,13.09
2019-04-25T00:06:37.082Z,13.11
2019-04-25T00:07:37.085Z,13.12
2019-04-25T00:08:37.246Z,13.11
2019-04-25T00:09:38.994Z,13.02
2019-04-25T00:10:35.845Z,13.06
2019-04-25T00:11:35.813Z,13.11
2019-04-25T00:12:35.793Z,13.17
2019-04-25T00:13:35.777Z,13.13
2019-04-25T00:14:35.756Z,13.03
2019-04-25T00:15:35.736Z,13.03
2019-04-25T00:16:35.717Z,13.03
2019-04-25T00:17:35.703Z,13.02
2019-04-25T00:18:35.684Z,12.99
2019-04-25T00:20:52.835Z,13.06
2019-04-25T00:21:19.606Z,13.03
2019-04-25T00:22:19.585Z,13.06
2019-04-25T00:23:21.691Z,13.11
2019-04-25T00:24:19.547Z,13.08
2019-04-25T00:25:19.535Z,13.02
2019-04-25T00:26:21.088Z,13.02
2019-04-25T00:27:19.488Z,12.98
2019-04-25T00:28:19.468Z,12.98
2019-04-25T00:29:19.446Z,13.03
2019-04-25T00:30:19.427Z,12.95
2019-04-25T00:33:21.608Z,13.11
2019-04-25T00:33:47.877Z,13.01
2019-04-25T00:34:48.456Z,12.99
2019-04-25T00:35:47.839Z,12.88
2019-04-25T00:36:48.658Z,12.90
2019-04-25T00:37:47.835Z,12.83
2019-04-25T00:38:48.276Z,12.73
2019-04-25T00:39:47.766Z,12.73
2019-04-25T00:40:48.067Z,12.65
2019-04-25T00:42:20.929Z,12.55
2019-04-25T00:42:48.261Z,12.61
2019-04-25T00:43:47.691Z,12.51
2019-04-25T00:44:47.662Z,12.61
2019-04-25T00:45:47.639Z,12.58
2019-04-25T00:46:49.028Z,12.50
2019-04-25T00:47:47.794Z,12.51
2019-04-25T00:48:47.737Z,12.53
2019-04-25T00:49:47.978Z,12.47
2019-04-25T00:50:48.004Z,12.40
2019-04-25T00:51:48.271Z,12.45
2019-04-25T00:52:48.293Z,12.44
2019-04-25T00:54:22.549Z,12.39
2019-04-25T00:54:48.333Z,12.39
2019-04-25T00:55:47.443Z,12.40
2019-04-25T00:56:48.273Z,12.37
2019-04-25T00:57:47.401Z,12.36
2019-04-25T00:58:47.389Z,12.29
2019-04-25T00:59:47.368Z,12.29
2019-04-25T01:00:47.340Z,12.17
2019-04-25T01:01:47.987Z,12.36
2019-04-25T01:02:47.360Z,12.28
2019-04-25T01:03:47.279Z,12.23
2019-04-25T01:04:47.268Z,12.25
2019-04-25T01:05:47.527Z,12.20
2019-04-25T01:06:47.551Z,12.17
2019-04-25T01:07:47.759Z,12.21
2019-04-25T01:08:47.780Z,12.12
2019-04-25T01:09:47.871Z,12.18
2019-04-25T01:10:47.961Z,12.17
2019-04-25T01:11:47.921Z,12.20
2019-04-25T01:12:47.096Z,12.20
2019-04-25T01:13:47.083Z,12.21
2019-04-25T01:14:47.057Z,12.21
2019-04-25T01:15:47.035Z,12.21
2019-04-25T01:16:47.016Z,12.21
2019-04-25T01:17:47.036Z,12.28
2019-04-25T01:18:46.976Z,12.32
2019-04-25T01:19:46.956Z,12.26
2019-04-25T01:20:46.999Z,12.23
2019-04-25T01:21:47.012Z,12.20
2019-04-25T01:22:47.197Z,12.23
2019-04-25T01:23:47.304Z,12.12
2019-04-25T01:24:47.250Z,12.08
2019-04-25T01:25:47.841Z,12.00
2019-04-25T01:26:47.482Z,11.95
2019-04-25T01:27:47.673Z,11.93
2019-04-25T01:28:47.644Z,12.00
2019-04-25T01:29:46.753Z,11.96
2019-04-25T01:30:46.735Z,12.07
2019-04-25T01:31:46.711Z,12.12
2019-04-25T01:32:46.803Z,12.15
2019-04-25T01:33:46.791Z,12.07
2019-04-25T01:34:47.043Z,12.07
2019-04-25T01:35:47.352Z,11.95
2019-04-25T01:36:47.220Z,11.78
2019-04-25T01:37:47.410Z,11.73
2019-04-25T01:38:47.422Z,11.73
2019-04-25T01:39:47.475Z,11.73
2019-04-25T01:40:48.129Z,11.70
2019-04-25T01:41:47.590Z,11.76
2019-04-25T01:42:47.847Z,11.74
2019-04-25T01:43:48.426Z,11.65
2019-04-25T01:44:47.924Z,11.60
2019-04-25T01:45:46.430Z,11.59
2019-04-25T01:46:46.408Z,11.62
2019-04-25T01:47:46.389Z,11.58
2019-04-25T01:48:46.368Z,11.59
2019-04-25T01:49:46.348Z,11.58
2019-04-25T01:50:46.327Z,11.60
2019-04-25T01:51:46.305Z,11.63
2019-04-25T01:52:46.286Z,11.81
2019-04-25T01:53:46.264Z,11.83
2019-04-25T01:54:46.245Z,11.95
2019-04-25T01:55:56.163Z,11.91
2019-04-25T01:56:46.214Z,11.83
2019-04-25T01:57:46.185Z,11.83
2019-04-25T01:58:46.167Z,11.95
2019-04-25T01:59:46.143Z,11.93
2019-04-25T02:00:46.125Z,11.99
2019-04-25T02:01:46.102Z,11.89
2019-04-25T02:02:46.084Z,11.89
2019-04-25T02:03:46.059Z,11.78
2019-04-25T02:04:46.040Z,11.83
2019-04-25T02:05:46.020Z,11.81
2019-04-25T02:06:46.000Z,11.78
2019-04-25T02:07:45.988Z,11.78
2019-04-25T02:08:45.958Z,11.91
2019-04-25T02:09:45.937Z,11.86
2019-04-25T02:10:45.917Z,11.88
2019-04-25T02:11:45.896Z,11.76
2019-04-25T02:12:45.880Z,11.80
2019-04-25T02:13:45.855Z,11.71
2019-04-25T02:14:45.845Z,11.77
2019-04-25T02:15:45.819Z,11.68
2019-04-25T02:16:45.795Z,11.62
2019-04-25T02:17:45.780Z,11.56
2019-04-25T02:18:45.765Z,11.62
2019-04-25T02:19:45.736Z,11.56
2019-04-25T02:20:45.713Z,11.67
2019-04-25T02:21:45.693Z,11.67
2019-04-25T02:22:45.675Z,11.59
2019-04-25T02:23:45.655Z,11.60
2019-04-25T02:24:45.629Z,11.58
2019-04-25T02:25:45.610Z,11.49
2019-04-25T02:26:45.689Z,11.52
2019-04-25T02:27:45.568Z,11.49
2019-04-25T02:28:45.548Z,11.41
2019-04-25T02:29:45.588Z,11.43
2019-04-25T02:30:45.612Z,11.31
2019-04-25T02:31:45.490Z,11.23
2019-04-25T02:32:45.469Z,11.25
2019-04-25T02:33:45.446Z,11.19
2019-04-25T02:34:45.751Z,11.15
2019-04-25T02:35:46.724Z,11.19
2019-04-25T02:36:47.004Z,11.26
2019-04-25T02:37:45.362Z,11.22
2019-04-25T02:38:45.344Z,11.18
2019-04-25T02:39:45.322Z,11.22
2019-04-25T02:40:45.654Z,11.19
2019-04-25T02:41:45.280Z,11.19
2019-04-25T02:42:46.675Z,11.13
2019-04-25T02:45:44.242Z,11.13
2019-04-25T02:46:44.931Z,11.05
2019-04-25T02:47:43.800Z,11.05
2019-04-25T02:49:42.097Z,11.04
2019-04-25T02:50:44.120Z,10.98
2019-04-25T02:51:42.055Z,11.08
2019-04-25T02:52:44.217Z,11.04
2019-04-25T02:53:44.487Z,11.05
2019-04-25T02:54:41.989Z,11.08
2019-04-25T02:55:44.486Z,11.00
2019-04-25T02:56:41.956Z,11.13
2019-04-25T02:57:41.926Z,11.05
2019-04-25T02:58:44.160Z,11.02
2019-04-25T02:59:41.892Z,11.10
2019-04-25T03:00:55.098Z,11.04
2019-04-25T03:01:44.327Z,11.05
2019-04-25T03:02:41.827Z,11.13
2019-04-25T03:03:41.799Z,11.07
2019-04-25T03:04:44.221Z,11.02
2019-04-25T03:05:41.759Z,11.04
2019-04-25T03:06:41.747Z,11.02
2019-04-25T03:07:41.719Z,11.02
2019-04-25T03:08:41.692Z,11.01
2019-04-25T03:09:45.103Z,11.01
2019-04-25T03:10:41.729Z,11.00
2019-04-25T03:11:41.627Z,11.08
2019-04-25T03:12:41.617Z,11.04
2019-04-25T03:15:06.646Z,11.04
2019-04-25T03:15:30.587Z,10.95
2019-04-25T03:16:30.566Z,10.95
2019-04-25T03:17:30.543Z,10.90
2019-04-25T03:18:30.523Z,11.05
2019-04-25T03:19:30.507Z,11.07
2019-04-25T03:20:30.487Z,11.08
2019-04-25T03:21:30.456Z,10.92
2019-04-25T03:22:30.438Z,11.00
2019-04-25T03:23:30.415Z,10.95
2019-04-25T03:24:30.393Z,10.95
2019-04-25T03:25:30.375Z,10.94
2019-04-25T03:27:05.209Z,10.87
2019-04-25T03:27:30.328Z,10.95
2019-04-25T03:29:04.937Z,10.89
2019-04-25T03:29:30.292Z,10.84
2019-04-25T03:31:07.341Z,10.95
2019-04-25T03:31:30.261Z,10.97
2019-04-25T03:32:30.220Z,10.92
2019-04-25T03:33:30.202Z,10.89
2019-04-25T03:34:30.186Z,10.89
2019-04-25T03:35:30.156Z,11.00
2019-04-25T03:36:30.134Z,11.07
2019-04-25T03:37:30.113Z,11.00
2019-04-25T03:38:30.092Z,11.05
2019-04-25T03:39:30.070Z,11.01
2019-04-25T03:40:30.049Z,10.98
2019-04-25T03:41:30.028Z,11.02
2019-04-25T03:42:30.008Z,11.04
2019-04-25T03:43:29.985Z,11.13
2019-04-25T03:44:29.964Z,11.01
2019-04-25T03:45:29.950Z,10.98
2019-04-25T03:46:29.922Z,11.04
2019-04-25T03:47:29.901Z,11.02
2019-04-25T03:48:29.878Z,11.04
2019-04-25T03:53:23.980Z,11.15
2019-04-25T03:53:49.385Z,11.22
2019-04-25T03:54:49.362Z,11.19
2019-04-25T03:55:49.342Z,11.23
2019-04-25T03:56:53.500Z,11.23
2019-04-25T03:58:23.940Z,11.25
2019-04-25T03:58:49.275Z,11.27
2019-04-25T03:59:49.253Z,11.23
2019-04-25T04:00:49.233Z,11.26
2019-04-25T04:01:49.211Z,11.33
2019-04-25T04:02:49.190Z,11.27
2019-04-25T04:04:23.755Z,11.27
2019-04-25T04:07:09.823Z,11.10
2019-04-25T04:07:34.777Z,11.16
2019-04-25T04:08:35.776Z,11.10
2019-04-25T04:10:08.025Z,11.13
2019-04-25T04:11:08.689Z,11.12
2019-04-25T04:11:34.688Z,11.05
2019-04-25T04:12:35.586Z,11.02
2019-04-25T04:13:34.641Z,11.05
2019-04-25T04:14:34.619Z,11.00
2019-04-25T04:15:34.607Z,11.02
2019-04-25T04:17:08.782Z,11.02
2019-04-25T04:19:53.718Z,11.02
2019-04-25T04:20:20.094Z,11.02
2019-04-25T04:21:20.060Z,11.10
2019-04-25T04:22:53.386Z,11.12
2019-04-25T04:23:54.204Z,11.10
2019-04-25T04:24:19.998Z,11.08
2019-04-25T04:25:20.008Z,11.10
2019-04-25T04:26:19.974Z,11.07
2019-04-25T04:27:53.816Z,11.12
2019-04-25T04:28:53.439Z,11.08
2019-04-25T04:31:38.729Z,11.12
2019-04-25T04:32:06.832Z,11.05
2019-04-25T04:33:06.849Z,11.23
2019-04-25T04:34:38.544Z,11.34
2019-04-25T04:35:38.509Z,11.26
2019-04-25T04:36:05.278Z,11.20
2019-04-25T04:37:05.256Z,11.23
2019-04-25T04:38:05.237Z,11.26
2019-04-25T04:39:38.432Z,11.25
2019-04-25T04:40:38.404Z,11.26
2019-04-25T04:53:46.410Z,11.30
2019-04-25T04:55:05.380Z,11.40
2019-04-25T04:55:20.692Z,11.34
2019-04-25T04:56:53.883Z,11.27
2019-04-25T04:57:54.330Z,11.26
2019-04-25T04:58:20.630Z,11.19
2019-04-25T05:01:06.003Z,11.25
2019-04-25T05:02:39.201Z,11.18
2019-04-25T05:04:51.112Z,11.26
2019-04-25T05:06:25.176Z,11.30
2019-04-25T05:08:36.166Z,11.48
2019-04-25T05:10:09.346Z,11.53
2019-04-25T05:12:21.646Z,11.58
2019-04-25T05:15:06.335Z,11.48
2019-04-25T06:36:46.984Z,15.36
2019-04-25T06:39:32.244Z,15.75
2019-04-25T06:42:17.090Z,15.62
2019-04-25T07:19:29.975Z,17.17
2019-04-25T07:21:03.360Z,17.27
2019-04-25T07:21:30.265Z,17.04
2019-04-25T07:22:29.725Z,17.09
2019-04-25T07:23:29.815Z,17.28
2019-04-25T07:24:29.691Z,17.19
2019-04-25T07:25:30.298Z,17.19
2019-04-25T07:26:30.148Z,17.01
2019-04-25T07:27:30.502Z,17.01
2019-04-25T07:28:31.128Z,17.05
2019-04-25T07:29:30.484Z,17.22
2019-04-25T07:30:43.844Z,17.28
2019-04-25T07:31:29.588Z,17.28
2019-04-25T07:32:31.066Z,17.32
2019-04-25T07:33:29.631Z,17.50
2019-04-25T07:34:29.521Z,17.50
2019-04-25T07:35:29.506Z,17.53
2019-04-25T07:36:29.488Z,17.47
2019-04-25T07:37:29.844Z,17.44
2019-04-25T07:38:29.465Z,17.46
2019-04-25T07:39:29.590Z,17.24
2019-04-25T07:40:29.670Z,17.37
2019-04-25T07:41:29.408Z,17.42
2019-04-25T07:42:29.812Z,17.60
2019-04-25T07:43:29.653Z,17.75
2019-04-25T07:44:45.571Z,17.97
2019-04-25T07:45:29.345Z,18.05
2019-04-25T07:46:29.807Z,18.02
2019-04-25T07:47:29.450Z,18.12
2019-04-25T07:48:30.082Z,18.00
2019-04-25T07:49:29.278Z,17.73
2019-04-25T07:50:30.129Z,17.78
2019-04-25T07:51:29.245Z,17.94
2019-04-25T07:52:29.238Z,17.98
2019-04-25T07:53:30.339Z,18.12
2019-04-25T07:54:29.211Z,18.18
2019-04-25T07:55:29.233Z,18.21
2019-04-25T07:56:29.399Z,18.08
2019-04-25T07:57:29.187Z,18.26
2019-04-25T07:58:44.936Z,18.28
2019-04-25T07:59:29.122Z,18.13
2019-04-25T08:00:29.659Z,18.21
2019-04-25T08:01:29.375Z,18.19
2019-04-25T08:02:29.715Z,18.30
2019-04-25T08:03:29.986Z,18.39
2019-04-25T08:04:29.090Z,18.57
2019-04-25T08:05:29.604Z,18.37
2019-04-25T08:06:29.358Z,18.31
2019-04-25T08:07:29.660Z,18.24
2019-04-25T08:08:29.764Z,18.09
2019-04-25T08:09:29.566Z,18.08
2019-04-25T08:10:29.994Z,18.13
2019-04-25T08:11:29.821Z,18.11
2019-04-25T08:12:28.940Z,18.13
2019-04-25T08:13:28.909Z,17.91
2019-04-25T08:14:30.104Z,17.91
2019-04-25T08:15:29.801Z,17.91
2019-04-25T08:16:29.804Z,18.02
2019-04-25T08:17:28.993Z,18.19
2019-04-25T08:18:28.829Z,18.13
2019-04-25T08:19:29.643Z,18.23
2019-04-25T08:20:29.266Z,18.13
2019-04-25T08:21:28.782Z,18.15
2019-04-25T08:22:30.031Z,18.33
2019-04-25T08:23:30.817Z,18.45
2019-04-25T08:24:29.207Z,18.48
2019-04-25T08:25:29.370Z,18.45
2019-04-25T08:26:29.485Z,18.52
2019-04-25T08:27:28.694Z,18.53
2019-04-25T08:28:28.672Z,18.55
2019-04-25T08:29:28.661Z,18.43
2019-04-25T08:30:29.785Z,18.52
2019-04-25T08:31:28.634Z,18.46
2019-04-25T08:32:28.660Z,18.51
2019-04-25T08:33:29.761Z,18.28
2019-04-25T08:34:28.582Z,18.15
2019-04-25T08:35:29.961Z,18.11
2019-04-25T08:36:28.556Z,18.02
2019-04-25T08:37:29.570Z,17.98
2019-04-25T08:38:28.518Z,18.18
2019-04-25T08:39:28.522Z,18.18
2019-04-25T08:40:28.486Z,18.31
2019-04-25T08:41:28.487Z,18.39
2019-04-25T08:42:28.457Z,18.37
2019-04-25T08:43:28.448Z,18.85
2019-04-25T08:44:28.442Z,19.09
2019-04-25T08:45:28.414Z,19.01
2019-04-25T08:46:28.396Z,19.00
2019-04-25T08:47:28.378Z,18.86
2019-04-25T08:48:28.360Z,19.07
2019-04-25T08:49:28.349Z,19.12
2019-04-25T08:50:31.389Z,19.19
2019-04-25T08:51:28.314Z,19.34
2019-04-25T08:52:28.298Z,19.32
2019-04-25T08:53:28.291Z,19.30
2019-04-25T08:54:28.269Z,19.45
2019-04-25T08:55:28.268Z,19.77
2019-04-25T08:56:28.241Z,19.89
2019-04-25T08:57:28.238Z,20.19
2019-04-25T08:58:28.215Z,20.00
2019-04-25T08:59:36.076Z,19.94
2019-04-25T09:00:28.181Z,20.17
2019-04-25T09:01:28.176Z,20.18
2019-04-25T09:02:28.153Z,20.02
2019-04-25T09:03:28.137Z,20.21
2019-04-25T09:04:28.135Z,20.17
2019-04-25T09:05:28.145Z,20.42
2019-04-25T09:06:28.096Z,20.48
2019-04-25T09:07:28.081Z,20.75
2019-04-25T09:08:28.070Z,20.88
2019-04-25T09:09:28.059Z,21.07
2019-04-25T09:10:28.049Z,21.15
2019-04-25T09:11:28.038Z,21.04
2019-04-25T09:12:28.016Z,20.90
2019-04-25T09:13:28.001Z,20.44
2019-04-25T09:14:27.988Z,20.59
2019-04-25T09:15:27.980Z,20.40
2019-04-25T09:16:27.971Z,20.37
2019-04-25T09:17:27.959Z,20.40
2019-04-25T09:18:27.939Z,20.21
2019-04-25T09:19:27.923Z,19.99
2019-04-25T09:20:27.909Z,19.96
2019-04-25T09:21:27.913Z,19.81
2019-04-25T09:22:27.888Z,19.79
2019-04-25T09:23:27.872Z,19.89
2019-04-25T09:24:27.867Z,19.89
2019-04-25T09:25:27.847Z,19.74
2019-04-25T09:26:27.834Z,19.34
2019-04-25T09:27:30.453Z,19.30
2019-04-25T09:28:27.813Z,19.26
2019-04-25T09:29:27.801Z,19.29
2019-04-25T09:30:27.799Z,19.45
2019-04-25T09:31:27.764Z,19.30
2019-04-25T09:32:27.757Z,19.26
2019-04-25T09:33:27.748Z,19.09
2019-04-25T09:34:27.730Z,18.86
2019-04-25T09:35:27.710Z,19.00
2019-04-25T09:36:27.702Z,18.88
2019-04-25T09:37:27.682Z,18.71
2019-04-25T09:38:27.666Z,18.55
2019-04-25T09:39:27.660Z,18.73
2019-04-25T09:40:27.643Z,18.79
2019-04-25T09:41:27.622Z,18.74
2019-04-25T09:42:27.616Z,18.64
2019-04-25T09:43:27.595Z,18.66
2019-04-25T09:44:27.584Z,18.63
2019-04-25T09:45:27.563Z,18.78
2019-04-25T09:46:27.557Z,18.73
2019-04-25T09:47:27.533Z,18.82
2019-04-25T09:48:27.525Z,18.88
2019-04-25T09:49:27.510Z,19.01
2019-04-25T09:50:27.488Z,18.82
2019-04-25T09:51:27.472Z,18.81
2019-04-25T09:52:27.465Z,18.67
2019-04-25T09:53:27.563Z,18.57
2019-04-25T09:54:27.444Z,18.82
2019-04-25T09:55:27.414Z,18.96
2019-04-25T09:56:27.403Z,19.22
2019-04-25T09:57:27.397Z,19.20
2019-04-25T09:58:27.373Z,19.32
2019-04-25T09:59:30.003Z,19.39
2019-04-25T10:00:27.343Z,19.56
2019-04-25T10:01:27.322Z,19.47
2019-04-25T10:02:27.304Z,20.00
2019-04-25T10:03:27.290Z,20.03
2019-04-25T10:04:27.283Z,20.08
2019-04-25T10:05:27.262Z,19.97
2019-04-25T10:06:27.244Z,20.04
2019-04-25T10:07:27.231Z,20.07
2019-04-25T10:08:27.216Z,19.99
2019-04-25T10:09:27.212Z,19.97
2019-04-25T10:10:27.187Z,19.90
2019-04-25T10:11:27.172Z,19.42
2019-04-25T10:12:27.158Z,19.26
2019-04-25T10:13:27.154Z,19.00
2019-04-25T10:14:27.130Z,18.94
2019-04-25T10:15:27.118Z,19.09
2019-04-25T10:16:27.101Z,19.26
2019-04-25T10:17:27.107Z,19.30
2019-04-25T10:18:27.073Z,19.35
2019-04-25T10:19:27.059Z,19.49
2019-04-25T10:20:27.199Z,19.30
2019-04-25T10:21:27.029Z,19.27
2019-04-25T10:22:27.021Z,19.34
2019-04-25T10:23:27.017Z,19.26
2019-04-25T10:24:26.988Z,19.19
2019-04-25T10:25:26.978Z,19.12
2019-04-25T10:26:26.954Z,18.88
2019-04-25T10:27:26.956Z,18.83
2019-04-25T10:28:26.931Z,18.86
2019-04-25T10:29:39.161Z,18.86
2019-04-25T10:30:26.905Z,18.79
2019-04-25T10:31:26.886Z,18.79
2019-04-25T10:32:26.865Z,18.76
2019-04-25T10:33:26.853Z,18.76
2019-04-25T10:34:26.844Z,18.76
2019-04-25T10:35:26.821Z,18.76
2019-04-25T10:36:26.863Z,18.67
2019-04-25T10:37:26.789Z,18.74
2019-04-25T10:38:26.774Z,18.74
2019-04-25T10:39:26.888Z,18.91
2019-04-25T10:40:26.749Z,19.07
2019-04-25T10:41:26.730Z,19.01
2019-04-25T10:42:26.710Z,19.00
2019-04-25T10:43:26.705Z,19.04
2019-04-25T10:44:26.681Z,19.01
2019-04-25T10:45:26.669Z,19.22
2019-04-25T10:46:26.648Z,19.30
2019-04-25T10:47:26.631Z,19.27
2019-04-25T10:48:26.619Z,19.32
2019-04-25T10:49:26.632Z,19.42
2019-04-25T10:50:26.586Z,19.45
2019-04-25T10:51:26.574Z,19.55
2019-04-25T10:52:26.556Z,19.85
2019-04-25T10:53:26.544Z,19.85
2019-04-25T10:54:26.526Z,19.72
2019-04-25T10:55:26.509Z,19.90
2019-04-25T10:56:26.494Z,19.87
2019-04-25T10:57:26.515Z,19.79
2019-04-25T10:58:26.476Z,20.15
2019-04-25T10:59:26.452Z,20.07
2019-04-25T11:00:26.433Z,20.40
2019-04-25T11:01:26.432Z,20.52
2019-04-25T11:02:26.404Z,20.55
2019-04-25T11:03:26.598Z,20.90
2019-04-25T11:04:26.374Z,21.41
2019-04-25T11:05:26.368Z,21.72
2019-04-25T11:06:26.356Z,22.15
2019-04-25T11:08:20.626Z,22.58
2019-04-25T11:09:20.611Z,22.92
2019-04-25T11:10:20.604Z,22.77
2019-04-25T11:11:20.596Z,22.41
2019-04-25T11:12:20.575Z,22.53
2019-04-25T11:13:20.565Z,22.56
2019-04-25T11:14:20.560Z,22.81
2019-04-25T11:15:20.542Z,23.23
2019-04-25T11:16:20.539Z,23.25
2019-04-25T11:17:24.226Z,23.33
2019-04-25T11:18:20.520Z,23.42
2019-04-25T11:19:20.518Z,23.14
2019-04-25T11:20:20.492Z,23.01
2019-04-25T11:25:31.008Z,23.23
2019-04-25T11:27:04.402Z,23.81
2019-04-25T11:27:31.093Z,24.16
2019-04-25T11:29:04.198Z,24.25
2019-04-25T11:29:30.986Z,24.46
2019-04-25T11:30:30.971Z,23.73
2019-04-25T11:31:30.959Z,23.71
2019-04-25T11:32:30.961Z,23.51
2019-04-25T11:33:30.961Z,23.51
2019-04-25T11:34:30.935Z,22.88
2019-04-25T11:35:30.932Z,22.84
2019-04-25T11:36:30.938Z,23.34
2019-04-25T11:37:30.923Z,23.82
2019-04-25T11:38:31.029Z,24.25
2019-04-25T11:39:30.904Z,23.76
2019-04-25T11:40:31.045Z,23.10
2019-04-25T11:41:30.889Z,23.06
2019-04-25T11:42:30.880Z,23.01
2019-04-25T11:43:30.874Z,22.22
2019-04-25T11:44:30.873Z,21.96
2019-04-25T11:45:30.873Z,21.78
2019-04-25T11:46:30.848Z,21.91
2019-04-25T11:47:30.852Z,21.99
2019-04-25T11:48:30.835Z,22.53
2019-04-25T11:49:30.861Z,22.61
2019-04-25T11:50:30.811Z,22.59
2019-04-25T11:51:30.801Z,22.63
2019-04-25T11:52:30.798Z,22.49
2019-04-25T11:53:30.782Z,22.25
2019-04-25T11:54:30.791Z,22.83
2019-04-25T11:55:30.771Z,22.91
2019-04-25T11:56:30.761Z,21.94
2019-04-25T11:57:30.739Z,21.50
2019-04-25T11:58:30.729Z,21.11
2019-04-25T11:59:30.724Z,21.32
2019-04-25T12:00:30.723Z,21.50
2019-04-25T12:01:30.704Z,21.43
2019-04-25T12:02:30.686Z,21.35
2019-04-25T12:03:30.673Z,21.23
2019-04-25T12:04:30.709Z,21.17
2019-04-25T12:05:30.655Z,21.07
2019-04-25T12:06:30.639Z,21.26
2019-04-25T12:07:30.625Z,21.19
2019-04-25T12:08:30.610Z,21.26
2019-04-25T12:09:30.599Z,21.10
2019-04-25T12:10:30.601Z,21.38
2019-04-25T12:11:30.582Z,21.33
2019-04-25T12:12:30.574Z,21.41
2019-04-25T12:13:30.545Z,21.50
2019-04-25T12:14:30.543Z,21.30
2019-04-25T12:15:30.519Z,21.29
2019-04-25T12:16:30.506Z,21.25
2019-04-25T12:17:30.493Z,21.04
2019-04-25T12:18:33.224Z,21.23
2019-04-25T12:19:35.739Z,21.38
2019-04-25T12:20:30.457Z,21.33
2019-04-25T12:21:30.438Z,21.47
2019-04-25T12:22:30.441Z,21.50
2019-04-25T12:23:30.409Z,21.51
2019-04-25T12:24:30.406Z,21.51
2019-04-25T12:25:30.381Z,21.58
2019-04-25T12:26:30.369Z,21.47
2019-04-25T12:27:30.359Z,21.48
2019-04-25T12:28:30.342Z,21.51
2019-04-25T12:29:30.326Z,21.43
2019-04-25T12:30:38.239Z,21.54
2019-04-25T12:31:34.181Z,21.54
2019-04-25T12:32:30.284Z,21.53
2019-04-25T12:33:31.284Z,21.60
2019-04-25T12:34:30.260Z,21.69
2019-04-25T12:35:30.249Z,21.65
2019-04-25T12:36:30.228Z,21.70
2019-04-25T12:37:30.211Z,21.68
2019-04-25T12:38:30.198Z,21.74
2019-04-25T12:39:30.185Z,21.77
2019-04-25T12:40:30.168Z,21.74
2019-04-25T12:41:30.171Z,21.78
2019-04-25T12:42:30.143Z,21.80
2019-04-25T12:43:30.129Z,21.75
2019-04-25T12:44:30.114Z,21.65
2019-04-25T12:45:30.112Z,21.68
2019-04-25T12:46:30.093Z,21.94
2019-04-25T12:47:30.073Z,21.96
2019-04-25T12:48:30.067Z,21.96
2019-04-25T12:49:30.051Z,22.21
2019-04-25T12:50:30.045Z,22.23
2019-04-25T12:51:30.018Z,22.15
2019-04-25T12:52:30.011Z,22.34
2019-04-25T12:53:29.988Z,22.36
2019-04-25T12:54:29.979Z,22.28
2019-04-25T12:55:29.962Z,22.41
2019-04-25T12:56:29.956Z,22.47
2019-04-25T12:57:29.939Z,22.46
2019-04-25T12:58:29.938Z,22.31
2019-04-25T12:59:29.905Z,22.37
2019-04-25T13:00:29.895Z,22.46
2019-04-25T13:01:29.877Z,22.37
2019-04-25T13:02:29.861Z,22.23
2019-04-25T13:03:29.847Z,22.08
2019-04-25T13:04:29.832Z,22.18
2019-04-25T13:05:29.829Z,22.34
2019-04-25T13:06:29.819Z,22.23
2019-04-25T13:07:30.811Z,22.21
2019-04-25T13:09:24.080Z,22.22
2019-04-25T13:11:07.491Z,22.15
2019-04-25T13:11:24.104Z,22.33
2019-04-25T13:14:09.289Z,22.56
2019-04-25T13:15:09.884Z,22.68
2019-04-25T13:16:09.244Z,22.70
2019-04-25T13:17:09.591Z,22.33
2019-04-25T13:18:09.214Z,22.41
2019-04-25T13:19:44.006Z,22.52
2019-04-25T13:20:09.224Z,22.55
2019-04-25T13:21:09.188Z,22.65
2019-04-25T13:22:09.154Z,22.65
2019-04-25T13:23:09.152Z,22.56
2019-04-25T13:24:42.335Z,22.71
2019-04-25T13:25:09.118Z,22.61
2019-04-25T13:26:09.099Z,22.73
2019-04-25T13:27:09.092Z,22.81
2019-04-25T13:28:09.066Z,22.67
2019-04-25T13:29:09.249Z,22.70
2019-04-25T13:30:09.040Z,22.76
2019-04-25T13:31:12.265Z,22.73
2019-04-25T13:32:09.013Z,22.81
2019-04-25T13:33:08.992Z,22.61
2019-04-25T13:34:09.652Z,22.51
2019-04-25T13:35:43.375Z,22.33
2019-04-25T13:36:08.962Z,22.44
2019-04-25T13:37:08.989Z,22.61
2019-04-25T13:38:08.928Z,22.56
2019-04-25T13:39:08.910Z,22.56
2019-04-25T13:40:08.891Z,22.44
2019-04-25T13:41:08.885Z,22.37
2019-04-25T13:42:08.861Z,22.56
2019-04-25T13:43:08.843Z,22.67
2019-04-25T13:44:09.259Z,22.67
2019-04-25T13:45:08.819Z,22.63
2019-04-25T13:46:08.806Z,22.62
2019-04-25T13:47:08.784Z,22.67
2019-04-25T13:48:08.777Z,22.70
2019-04-25T13:49:08.759Z,22.81
2019-04-25T13:50:08.738Z,23.02
2019-04-25T13:51:08.735Z,22.95
2019-04-25T13:52:08.708Z,22.92
2019-04-25T13:54:54.043Z,23.20
2019-04-25T13:55:54.031Z,23.18
2019-04-25T13:56:54.020Z,23.14
2019-04-25T13:57:54.898Z,23.23
2019-04-25T13:58:54.316Z,23.25
2019-04-25T13:59:54.190Z,23.28
2019-04-25T14:00:53.963Z,23.37
2019-04-25T14:01:54.172Z,23.13
2019-04-25T14:02:53.925Z,22.92
2019-04-25T14:03:54.252Z,22.92
2019-04-25T14:05:27.102Z,22.83
2019-04-25T14:05:54.055Z,22.88
2019-04-25T14:06:53.879Z,23.16
2019-04-25T14:07:53.847Z,23.37
2019-04-25T14:08:53.848Z,23.52
2019-04-25T14:09:53.820Z,23.77
2019-04-25T14:10:54.265Z,23.84
2019-04-25T14:11:54.038Z,23.81
2019-04-25T14:12:53.771Z,23.86
2019-04-25T14:13:53.764Z,23.91
2019-04-25T14:14:54.124Z,24.01
2019-04-25T14:15:53.725Z,24.14
2019-04-25T14:16:54.613Z,24.26
2019-04-25T14:17:53.839Z,24.16
2019-04-25T14:18:53.683Z,24.06
2019-04-25T14:19:54.191Z,23.95
2019-04-25T14:20:53.654Z,23.84
2019-04-25T14:21:54.270Z,23.56
2019-04-25T14:22:53.757Z,23.62
2019-04-25T14:23:54.111Z,23.58
2019-04-25T14:24:54.061Z,23.52
2019-04-25T14:25:53.598Z,23.36
2019-04-25T14:26:53.575Z,23.37
2019-04-25T14:28:29.254Z,23.37
2019-04-25T14:29:26.761Z,23.39
2019-04-25T14:29:53.631Z,23.51
2019-04-25T14:30:53.516Z,23.47
2019-04-25T14:32:28.704Z,23.42
2019-04-25T14:32:53.692Z,23.55
2019-04-25T14:33:53.466Z,23.49
2019-04-25T14:34:54.467Z,23.42
2019-04-25T14:35:54.800Z,23.39
2019-04-25T14:36:54.183Z,23.48
2019-04-25T14:37:53.912Z,23.66
2019-04-25T14:38:53.394Z,23.62
2019-04-25T14:39:53.633Z,23.49
2019-04-25T14:40:53.364Z,23.59
2019-04-25T14:41:53.362Z,23.69
2019-04-25T14:42:53.340Z,23.59
2019-04-25T14:43:53.323Z,23.73
2019-04-25T14:44:53.310Z,23.67
2019-04-25T14:45:55.960Z,23.64
2019-04-25T14:46:53.280Z,23.71
2019-04-25T14:47:53.274Z,23.62
2019-04-25T14:48:53.250Z,23.63
2019-04-25T14:49:53.251Z,23.77
2019-04-25T14:50:53.230Z,23.62
2019-04-25T14:51:53.218Z,23.48
2019-04-25T14:52:53.196Z,23.49
2019-04-25T14:53:53.188Z,23.58
2019-04-25T14:54:53.175Z,23.54
2019-04-25T14:55:53.181Z,23.39
2019-04-25T14:56:53.140Z,23.44
2019-04-25T14:57:53.126Z,23.56
2019-04-25T14:58:53.113Z,23.58
2019-04-25T14:59:53.118Z,23.55
2019-04-25T15:00:53.086Z,23.56
2019-04-25T15:01:53.068Z,23.33
2019-04-25T15:02:54.301Z,23.16
2019-04-25T15:03:53.090Z,23.02
2019-04-25T15:04:53.038Z,23.08
2019-04-25T15:05:53.015Z,23.01
2019-04-25T15:06:53.003Z,23.08
2019-04-25T15:07:53.002Z,23.11
2019-04-25T15:08:52.971Z,23.11
2019-04-25T15:09:52.960Z,23.14
2019-04-25T15:10:52.943Z,23.26
2019-04-25T15:11:52.930Z,23.33
2019-04-25T15:12:52.933Z,23.37
2019-04-25T15:13:52.901Z,23.37
2019-04-25T15:14:52.891Z,23.39
2019-04-25T15:15:52.885Z,23.37
2019-04-25T15:16:52.868Z,23.40
2019-04-25T15:17:52.844Z,23.37
2019-04-25T15:18:52.834Z,23.37
2019-04-25T15:19:52.818Z,23.40
2019-04-25T15:20:52.808Z,23.44
2019-04-25T15:21:52.795Z,23.63
2019-04-25T15:22:52.781Z,23.56
2019-04-25T15:24:00.058Z,23.82
2019-04-25T15:24:52.745Z,23.85
2019-04-25T15:25:52.739Z,23.81
2019-04-25T15:26:52.719Z,23.64
2019-04-25T15:27:52.705Z,23.52
2019-04-25T15:28:52.689Z,23.59
2019-04-25T15:29:52.679Z,23.58
2019-04-25T15:30:53.284Z,23.52
2019-04-25T15:31:55.945Z,23.39
2019-04-25T15:32:52.641Z,23.39
2019-04-25T15:33:52.779Z,23.42
2019-04-25T15:34:52.613Z,23.44
2019-04-25T15:35:52.600Z,23.37
2019-04-25T15:36:52.586Z,23.33
2019-04-25T15:37:52.568Z,23.21